sensor_id;sensor_type;location;lat;lon;timestamp;temperature;humidity
32506;DHT22;18955;51.224;8.482;2023-04-08T00:00:13;6.10;86.50
32506;DHT22;18955;51.224;8.482;2023-04-08T00:02:40;6.20;86.30
32506;DHT22;18955;51.224;8.482;2023-04-08T00:05:07;6.20;86.30
32506;DHT22;18955;51.224;8.482;2023-04-08T00:07:33;6.10;86.40
32506;DHT22;18955;51.224;8.482;2023-04-08T00:10:00;6.10;86.30
32506;DHT22;18955;51.224;8.482;2023-04-08T00:12:26;6.10;86.30
32506;DHT22;18955;51.224;8.482;2023-04-08T00:14:52;6.10;86.50
32506;DHT22;18955;51.224;8.482;2023-04-08T00:17:18;6.10;86.50
32506;DHT22;18955;51.224;8.482;2023-04-08T00:19:44;6.10;86.50
32506;DHT22;18955;51.224;8.482;2023-04-08T00:22:11;6.00;86.60
32506;DHT22;18955;51.224;8.482;2023-04-08T00:24:37;6.00;86.50
32506;DHT22;18955;51.224;8.482;2023-04-08T00:27:05;6.00;86.50
32506;DHT22;18955;51.224;8.482;2023-04-08T00:29:32;6.00;86.60
32506;DHT22;18955;51.224;8.482;2023-04-08T00:31:58;6.00;86.50
32506;DHT22;18955;51.224;8.482;2023-04-08T00:34:24;5.90;86.80
32506;DHT22;18955;51.224;8.482;2023-04-08T00:36:50;6.00;86.60
32506;DHT22;18955;51.224;8.482;2023-04-08T00:39:17;6.00;86.70
32506;DHT22;18955;51.224;8.482;2023-04-08T00:41:43;5.90;87.10
32506;DHT22;18955;51.224;8.482;2023-04-08T00:44:09;5.90;86.60
32506;DHT22;18955;51.224;8.482;2023-04-08T00:46:38;5.80;86.40
32506;DHT22;18955;51.224;8.482;2023-04-08T00:49:05;5.90;86.40
32506;DHT22;18955;51.224;8.482;2023-04-08T00:51:33;5.80;86.40
32506;DHT22;18955;51.224;8.482;2023-04-08T00:54:02;5.90;86.30
32506;DHT22;18955;51.224;8.482;2023-04-08T00:56:31;5.50;86.10
32506;DHT22;18955;51.224;8.482;2023-04-08T00:58:59;5.80;86.20
32506;DHT22;18955;51.224;8.482;2023-04-08T01:04:28;5.80;86.30
32506;DHT22;18955;51.224;8.482;2023-04-08T01:09:29;5.70;86.30
32506;DHT22;18955;51.224;8.482;2023-04-08T01:11:58;5.80;86.30
32506;DHT22;18955;51.224;8.482;2023-04-08T01:14:27;5.70;86.10
32506;DHT22;18955;51.224;8.482;2023-04-08T01:16:58;5.70;86.30
32506;DHT22;18955;51.224;8.482;2023-04-08T01:19:32;5.70;86.20
32506;DHT22;18955;51.224;8.482;2023-04-08T01:22:31;5.70;86.20
32506;DHT22;18955;51.224;8.482;2023-04-08T01:25:05;5.60;86.10
32506;DHT22;18955;51.224;8.482;2023-04-08T01:27:34;5.60;86.20
32506;DHT22;18955;51.224;8.482;2023-04-08T01:30:03;5.50;86.20
32506;DHT22;18955;51.224;8.482;2023-04-08T01:32:31;5.60;86.10
32506;DHT22;18955;51.224;8.482;2023-04-08T01:35:00;5.50;86.20
32506;DHT22;18955;51.224;8.482;2023-04-08T01:37:29;5.50;86.30
32506;DHT22;18955;51.224;8.482;2023-04-08T01:39:56;5.50;86.20
32506;DHT22;18955;51.224;8.482;2023-04-08T01:42:24;5.50;86.10
32506;DHT22;18955;51.224;8.482;2023-04-08T01:44:55;5.50;86.20
32506;DHT22;18955;51.224;8.482;2023-04-08T01:47:23;5.50;86.30
32506;DHT22;18955;51.224;8.482;2023-04-08T01:49:51;5.40;86.20
32506;DHT22;18955;51.224;8.482;2023-04-08T01:52:19;5.40;86.30
32506;DHT22;18955;51.224;8.482;2023-04-08T01:54:46;5.40;86.30
32506;DHT22;18955;51.224;8.482;2023-04-08T01:57:23;5.40;86.40
32506;DHT22;18955;51.224;8.482;2023-04-08T01:59:52;5.40;86.40
32506;DHT22;18955;51.224;8.482;2023-04-08T02:02:23;5.40;86.50
32506;DHT22;18955;51.224;8.482;2023-04-08T02:04:52;5.30;86.50
32506;DHT22;18955;51.224;8.482;2023-04-08T02:07:19;5.40;86.60
32506;DHT22;18955;51.224;8.482;2023-04-08T02:09:45;5.30;86.60
32506;DHT22;18955;51.224;8.482;2023-04-08T02:12:12;5.30;86.60
32506;DHT22;18955;51.224;8.482;2023-04-08T02:14:38;5.30;86.50
32506;DHT22;18955;51.224;8.482;2023-04-08T02:17:12;5.30;86.70
32506;DHT22;18955;51.224;8.482;2023-04-08T02:19:57;5.20;86.50
32506;DHT22;18955;51.224;8.482;2023-04-08T02:22:42;5.20;86.50
32506;DHT22;18955;51.224;8.482;2023-04-08T02:25:13;5.20;86.50
32506;DHT22;18955;51.224;8.482;2023-04-08T02:27:40;5.20;86.70
32506;DHT22;18955;51.224;8.482;2023-04-08T02:30:09;5.20;86.60
32506;DHT22;18955;51.224;8.482;2023-04-08T02:32:36;5.20;86.70
32506;DHT22;18955;51.224;8.482;2023-04-08T02:35:04;5.10;86.60
32506;DHT22;18955;51.224;8.482;2023-04-08T02:37:31;5.10;86.40
32506;DHT22;18955;51.224;8.482;2023-04-08T02:39:57;5.10;86.60
32506;DHT22;18955;51.224;8.482;2023-04-08T02:42:24;5.10;86.60
32506;DHT22;18955;51.224;8.482;2023-04-08T02:44:52;5.10;86.60
32506;DHT22;18955;51.224;8.482;2023-04-08T02:47:18;5.10;86.60
32506;DHT22;18955;51.224;8.482;2023-04-08T02:49:44;5.00;86.60
32506;DHT22;18955;51.224;8.482;2023-04-08T02:52:11;5.00;86.70
32506;DHT22;18955;51.224;8.482;2023-04-08T02:54:38;5.00;86.80
32506;DHT22;18955;51.224;8.482;2023-04-08T02:57:04;5.00;86.70
32506;DHT22;18955;51.224;8.482;2023-04-08T02:59:30;5.00;86.70
32506;DHT22;18955;51.224;8.482;2023-04-08T03:01:57;5.00;86.60
32506;DHT22;18955;51.224;8.482;2023-04-08T03:04:23;5.00;86.70
32506;DHT22;18955;51.224;8.482;2023-04-08T03:06:49;5.00;86.60
32506;DHT22;18955;51.224;8.482;2023-04-08T03:09:15;4.90;86.60
32506;DHT22;18955;51.224;8.482;2023-04-08T03:11:41;4.90;86.60
32506;DHT22;18955;51.224;8.482;2023-04-08T03:14:09;4.90;86.50
32506;DHT22;18955;51.224;8.482;2023-04-08T03:16:36;4.90;86.70
32506;DHT22;18955;51.224;8.482;2023-04-08T03:19:02;4.90;86.70
32506;DHT22;18955;51.224;8.482;2023-04-08T03:21:28;4.90;86.50
32506;DHT22;18955;51.224;8.482;2023-04-08T03:23:56;4.80;86.60
32506;DHT22;18955;51.224;8.482;2023-04-08T03:26:22;4.80;86.60
32506;DHT22;18955;51.224;8.482;2023-04-08T03:28:49;4.80;87.10
32506;DHT22;18955;51.224;8.482;2023-04-08T03:31:15;4.80;86.60
32506;DHT22;18955;51.224;8.482;2023-04-08T03:33:41;4.90;86.70
32506;DHT22;18955;51.224;8.482;2023-04-08T03:36:07;4.70;86.70
32506;DHT22;18955;51.224;8.482;2023-04-08T03:38:34;4.80;87.00
32506;DHT22;18955;51.224;8.482;2023-04-08T03:41:01;4.80;86.80
32506;DHT22;18955;51.224;8.482;2023-04-08T03:43:27;4.70;86.80
32506;DHT22;18955;51.224;8.482;2023-04-08T03:45:54;4.70;86.70
32506;DHT22;18955;51.224;8.482;2023-04-08T03:48:21;4.70;86.60
32506;DHT22;18955;51.224;8.482;2023-04-08T03:50:47;4.70;86.60
32506;DHT22;18955;51.224;8.482;2023-04-08T03:53:13;4.70;86.70
32506;DHT22;18955;51.224;8.482;2023-04-08T03:55:40;4.70;86.70
32506;DHT22;18955;51.224;8.482;2023-04-08T03:58:06;4.70;86.80
32506;DHT22;18955;51.224;8.482;2023-04-08T04:00:34;4.60;86.80
32506;DHT22;18955;51.224;8.482;2023-04-08T04:03:01;4.70;86.70
32506;DHT22;18955;51.224;8.482;2023-04-08T04:05:28;4.60;86.70
32506;DHT22;18955;51.224;8.482;2023-04-08T04:07:54;4.60;86.80
32506;DHT22;18955;51.224;8.482;2023-04-08T04:10:20;4.60;86.70
32506;DHT22;18955;51.224;8.482;2023-04-08T04:12:48;4.60;86.80
32506;DHT22;18955;51.224;8.482;2023-04-08T04:15:14;4.60;86.90
32506;DHT22;18955;51.224;8.482;2023-04-08T04:17:40;4.50;86.80
32506;DHT22;18955;51.224;8.482;2023-04-08T04:20:07;4.50;86.80
32506;DHT22;18955;51.224;8.482;2023-04-08T04:22:33;4.50;86.70
32506;DHT22;18955;51.224;8.482;2023-04-08T04:24:59;4.50;86.70
32506;DHT22;18955;51.224;8.482;2023-04-08T04:27:26;4.50;86.90
32506;DHT22;18955;51.224;8.482;2023-04-08T04:29:52;4.50;86.90
32506;DHT22;18955;51.224;8.482;2023-04-08T04:32:18;4.50;87.00
32506;DHT22;18955;51.224;8.482;2023-04-08T04:34:45;4.40;86.90
32506;DHT22;18955;51.224;8.482;2023-04-08T04:37:11;4.40;86.70
32506;DHT22;18955;51.224;8.482;2023-04-08T04:39:37;4.50;87.20
32506;DHT22;18955;51.224;8.482;2023-04-08T04:42:03;4.50;87.10
32506;DHT22;18955;51.224;8.482;2023-04-08T04:44:30;4.50;87.10
32506;DHT22;18955;51.224;8.482;2023-04-08T04:46:56;4.40;87.00
32506;DHT22;18955;51.224;8.482;2023-04-08T04:49:23;4.40;86.90
32506;DHT22;18955;51.224;8.482;2023-04-08T04:51:50;4.40;86.90
32506;DHT22;18955;51.224;8.482;2023-04-08T04:54:16;4.70;87.20
32506;DHT22;18955;51.224;8.482;2023-04-08T04:56:42;4.40;86.90
32506;DHT22;18955;51.224;8.482;2023-04-08T04:59:08;4.40;87.00
32506;DHT22;18955;51.224;8.482;2023-04-08T05:01:35;4.40;86.90
32506;DHT22;18955;51.224;8.482;2023-04-08T05:04:01;4.40;86.80
32506;DHT22;18955;51.224;8.482;2023-04-08T05:06:27;4.40;87.00
32506;DHT22;18955;51.224;8.482;2023-04-08T05:08:53;4.30;87.00
32506;DHT22;18955;51.224;8.482;2023-04-08T05:11:20;4.40;87.00
32506;DHT22;18955;51.224;8.482;2023-04-08T05:13:46;4.40;87.10
32506;DHT22;18955;51.224;8.482;2023-04-08T05:16:12;4.30;87.00
32506;DHT22;18955;51.224;8.482;2023-04-08T05:18:39;4.30;86.90
32506;DHT22;18955;51.224;8.482;2023-04-08T05:21:05;4.40;87.20
32506;DHT22;18955;51.224;8.482;2023-04-08T05:23:31;4.30;87.20
32506;DHT22;18955;51.224;8.482;2023-04-08T05:25:57;4.30;87.10
32506;DHT22;18955;51.224;8.482;2023-04-08T05:28:23;4.30;87.10
32506;DHT22;18955;51.224;8.482;2023-04-08T05:30:50;4.30;87.20
32506;DHT22;18955;51.224;8.482;2023-04-08T05:33:17;4.30;87.20
32506;DHT22;18955;51.224;8.482;2023-04-08T05:35:43;4.30;87.10
32506;DHT22;18955;51.224;8.482;2023-04-08T05:38:09;4.30;87.00
32506;DHT22;18955;51.224;8.482;2023-04-08T05:40:36;4.30;87.00
32506;DHT22;18955;51.224;8.482;2023-04-08T05:43:02;4.30;87.30
32506;DHT22;18955;51.224;8.482;2023-04-08T05:45:29;4.20;87.10
32506;DHT22;18955;51.224;8.482;2023-04-08T05:47:55;4.30;87.20
32506;DHT22;18955;51.224;8.482;2023-04-08T05:50:21;4.30;87.30
32506;DHT22;18955;51.224;8.482;2023-04-08T05:52:47;4.20;87.20
32506;DHT22;18955;51.224;8.482;2023-04-08T05:55:14;4.20;87.10
32506;DHT22;18955;51.224;8.482;2023-04-08T05:57:40;4.20;87.10
32506;DHT22;18955;51.224;8.482;2023-04-08T06:00:08;4.20;87.10
32506;DHT22;18955;51.224;8.482;2023-04-08T06:02:36;4.20;87.10
32506;DHT22;18955;51.224;8.482;2023-04-08T06:05:03;4.20;87.20
32506;DHT22;18955;51.224;8.482;2023-04-08T06:07:30;4.20;87.30
32506;DHT22;18955;51.224;8.482;2023-04-08T06:09:57;4.20;87.30
32506;DHT22;18955;51.224;8.482;2023-04-08T06:12:23;4.20;87.40
32506;DHT22;18955;51.224;8.482;2023-04-08T06:14:53;4.70;87.60
32506;DHT22;18955;51.224;8.482;2023-04-08T06:17:20;4.20;87.50
32506;DHT22;18955;51.224;8.482;2023-04-08T06:19:47;4.20;87.30
32506;DHT22;18955;51.224;8.482;2023-04-08T06:22:13;4.20;87.50
32506;DHT22;18955;51.224;8.482;2023-04-08T06:24:39;4.20;87.30
32506;DHT22;18955;51.224;8.482;2023-04-08T06:27:05;4.20;87.50
32506;DHT22;18955;51.224;8.482;2023-04-08T06:29:32;4.20;87.40
32506;DHT22;18955;51.224;8.482;2023-04-08T06:31:58;4.20;87.30
32506;DHT22;18955;51.224;8.482;2023-04-08T06:34:24;4.20;87.40
32506;DHT22;18955;51.224;8.482;2023-04-08T06:36:51;4.10;87.40
32506;DHT22;18955;51.224;8.482;2023-04-08T06:39:17;4.10;87.40
32506;DHT22;18955;51.224;8.482;2023-04-08T06:41:44;4.10;87.40
32506;DHT22;18955;51.224;8.482;2023-04-08T06:44:25;4.10;87.60
32506;DHT22;18955;51.224;8.482;2023-04-08T06:46:52;4.10;87.40
32506;DHT22;18955;51.224;8.482;2023-04-08T06:49:18;4.10;87.60
32506;DHT22;18955;51.224;8.482;2023-04-08T06:51:44;4.10;87.50
32506;DHT22;18955;51.224;8.482;2023-04-08T06:54:10;4.10;87.50
32506;DHT22;18955;51.224;8.482;2023-04-08T06:56:37;4.10;88.00
32506;DHT22;18955;51.224;8.482;2023-04-08T06:59:03;4.10;87.40
32506;DHT22;18955;51.224;8.482;2023-04-08T07:01:29;4.10;87.40
32506;DHT22;18955;51.224;8.482;2023-04-08T07:03:57;4.10;87.40
32506;DHT22;18955;51.224;8.482;2023-04-08T07:06:23;4.10;87.50
32506;DHT22;18955;51.224;8.482;2023-04-08T07:08:49;4.00;87.30
32506;DHT22;18955;51.224;8.482;2023-04-08T07:11:16;4.10;87.40
32506;DHT22;18955;51.224;8.482;2023-04-08T07:13:42;4.10;87.50
32506;DHT22;18955;51.224;8.482;2023-04-08T07:16:08;4.10;87.60
32506;DHT22;18955;51.224;8.482;2023-04-08T07:18:34;4.10;87.60
32506;DHT22;18955;51.224;8.482;2023-04-08T07:21:01;4.20;87.70
32506;DHT22;18955;51.224;8.482;2023-04-08T07:23:27;4.10;87.60
32506;DHT22;18955;51.224;8.482;2023-04-08T07:25:53;4.10;87.60
32506;DHT22;18955;51.224;8.482;2023-04-08T07:28:20;4.10;87.60
32506;DHT22;18955;51.224;8.482;2023-04-08T07:30:46;4.10;87.60
32506;DHT22;18955;51.224;8.482;2023-04-08T07:33:12;4.10;87.60
32506;DHT22;18955;51.224;8.482;2023-04-08T07:35:39;4.10;87.60
32506;DHT22;18955;51.224;8.482;2023-04-08T07:38:06;4.10;87.70
32506;DHT22;18955;51.224;8.482;2023-04-08T07:40:36;4.10;87.70
32506;DHT22;18955;51.224;8.482;2023-04-08T07:43:02;4.00;87.50
32506;DHT22;18955;51.224;8.482;2023-04-08T07:45:28;4.10;87.60
32506;DHT22;18955;51.224;8.482;2023-04-08T07:47:55;4.10;87.50
32506;DHT22;18955;51.224;8.482;2023-04-08T07:50:21;4.10;87.60
32506;DHT22;18955;51.224;8.482;2023-04-08T07:52:47;4.10;87.60
32506;DHT22;18955;51.224;8.482;2023-04-08T07:55:13;4.10;87.60
32506;DHT22;18955;51.224;8.482;2023-04-08T07:57:40;4.10;87.80
32506;DHT22;18955;51.224;8.482;2023-04-08T08:00:06;4.10;87.80
32506;DHT22;18955;51.224;8.482;2023-04-08T08:02:39;4.10;87.70
32506;DHT22;18955;51.224;8.482;2023-04-08T08:05:05;4.20;87.90
32506;DHT22;18955;51.224;8.482;2023-04-08T08:07:32;4.10;88.20
32506;DHT22;18955;51.224;8.482;2023-04-08T08:09:58;4.10;87.70
32506;DHT22;18955;51.224;8.482;2023-04-08T08:12:25;4.20;87.70
32506;DHT22;18955;51.224;8.482;2023-04-08T08:14:51;4.20;87.80
32506;DHT22;18955;51.224;8.482;2023-04-08T08:17:19;4.20;87.80
32506;DHT22;18955;51.224;8.482;2023-04-08T08:19:46;4.10;87.60
32506;DHT22;18955;51.224;8.482;2023-04-08T08:22:12;4.20;87.80
32506;DHT22;18955;51.224;8.482;2023-04-08T08:24:38;4.20;87.70
32506;DHT22;18955;51.224;8.482;2023-04-08T08:27:04;4.20;87.70
32506;DHT22;18955;51.224;8.482;2023-04-08T08:29:31;4.10;87.80
32506;DHT22;18955;51.224;8.482;2023-04-08T08:31:57;4.20;87.80
32506;DHT22;18955;51.224;8.482;2023-04-08T08:34:24;4.20;87.80
32506;DHT22;18955;51.224;8.482;2023-04-08T08:36:50;4.20;87.70
32506;DHT22;18955;51.224;8.482;2023-04-08T08:39:16;4.20;87.80
32506;DHT22;18955;51.224;8.482;2023-04-08T08:41:42;4.20;87.90
32506;DHT22;18955;51.224;8.482;2023-04-08T08:44:09;4.20;87.90
32506;DHT22;18955;51.224;8.482;2023-04-08T08:46:35;4.20;87.80
32506;DHT22;18955;51.224;8.482;2023-04-08T08:49:01;4.20;87.80
32506;DHT22;18955;51.224;8.482;2023-04-08T08:51:28;4.20;87.80
32506;DHT22;18955;51.224;8.482;2023-04-08T08:53:55;4.20;87.90
32506;DHT22;18955;51.224;8.482;2023-04-08T08:56:21;4.20;87.70
32506;DHT22;18955;51.224;8.482;2023-04-08T08:58:47;4.20;87.60
32506;DHT22;18955;51.224;8.482;2023-04-08T09:01:34;4.20;87.70
32506;DHT22;18955;51.224;8.482;2023-04-08T09:04:11;4.20;87.70
32506;DHT22;18955;51.224;8.482;2023-04-08T09:06:39;4.20;88.00
32506;DHT22;18955;51.224;8.482;2023-04-08T09:09:05;4.20;87.90
32506;DHT22;18955;51.224;8.482;2023-04-08T09:11:39;4.30;88.00
32506;DHT22;18955;51.224;8.482;2023-04-08T09:14:23;4.30;88.00
32506;DHT22;18955;51.224;8.482;2023-04-08T09:16:50;4.20;88.00
32506;DHT22;18955;51.224;8.482;2023-04-08T09:19:17;4.30;88.10
32506;DHT22;18955;51.224;8.482;2023-04-08T09:21:44;4.30;88.30
32506;DHT22;18955;51.224;8.482;2023-04-08T09:24:27;4.30;88.20
32506;DHT22;18955;51.224;8.482;2023-04-08T09:26:54;4.30;88.20
32506;DHT22;18955;51.224;8.482;2023-04-08T09:29:23;4.30;88.10
32506;DHT22;18955;51.224;8.482;2023-04-08T09:31:58;4.30;87.90
32506;DHT22;18955;51.224;8.482;2023-04-08T09:34:25;4.30;87.80
32506;DHT22;18955;51.224;8.482;2023-04-08T09:36:52;4.40;87.80
32506;DHT22;18955;51.224;8.482;2023-04-08T09:39:20;4.40;87.70
32506;DHT22;18955;51.224;8.482;2023-04-08T09:41:50;4.40;87.70
32506;DHT22;18955;51.224;8.482;2023-04-08T09:44:18;4.40;87.60
32506;DHT22;18955;51.224;8.482;2023-04-08T09:49:43;4.50;87.40
32506;DHT22;18955;51.224;8.482;2023-04-08T09:52:23;4.50;87.60
32506;DHT22;18955;51.224;8.482;2023-04-08T09:55:02;4.50;87.60
32506;DHT22;18955;51.224;8.482;2023-04-08T09:57:50;4.50;87.40
32506;DHT22;18955;51.224;8.482;2023-04-08T10:00:18;4.60;87.50
32506;DHT22;18955;51.224;8.482;2023-04-08T10:03:00;4.50;87.40
32506;DHT22;18955;51.224;8.482;2023-04-08T10:05:29;4.60;87.50
32506;DHT22;18955;51.224;8.482;2023-04-08T10:07:57;4.60;87.60
32506;DHT22;18955;51.224;8.482;2023-04-08T10:10:24;4.60;87.60
32506;DHT22;18955;51.224;8.482;2023-04-08T10:12:52;4.60;87.50
32506;DHT22;18955;51.224;8.482;2023-04-08T10:15:29;4.60;87.50
32506;DHT22;18955;51.224;8.482;2023-04-08T10:23:02;4.70;87.50
32506;DHT22;18955;51.224;8.482;2023-04-08T10:25:29;4.70;87.50
32506;DHT22;18955;51.224;8.482;2023-04-08T10:27:56;4.70;87.50
32506;DHT22;18955;51.224;8.482;2023-04-08T10:32:56;4.70;87.50
32506;DHT22;18955;51.224;8.482;2023-04-08T10:35:34;4.70;87.50
32506;DHT22;18955;51.224;8.482;2023-04-08T10:38:00;4.80;87.60
32506;DHT22;18955;51.224;8.482;2023-04-08T10:40:27;4.80;87.60
32506;DHT22;18955;51.224;8.482;2023-04-08T10:42:54;4.80;87.60
32506;DHT22;18955;51.224;8.482;2023-04-08T10:45:22;4.80;87.60
32506;DHT22;18955;51.224;8.482;2023-04-08T10:47:48;4.80;87.60
32506;DHT22;18955;51.224;8.482;2023-04-08T10:50:16;4.80;87.60
32506;DHT22;18955;51.224;8.482;2023-04-08T10:52:53;4.90;87.60
32506;DHT22;18955;51.224;8.482;2023-04-08T10:55:25;4.90;87.70
32506;DHT22;18955;51.224;8.482;2023-04-08T10:57:52;4.90;87.60
32506;DHT22;18955;51.224;8.482;2023-04-08T11:00:19;4.90;87.60
32506;DHT22;18955;51.224;8.482;2023-04-08T11:03:08;5.00;87.60
32506;DHT22;18955;51.224;8.482;2023-04-08T11:05:35;4.90;87.50
32506;DHT22;18955;51.224;8.482;2023-04-08T11:08:05;5.30;87.60
32506;DHT22;18955;51.224;8.482;2023-04-08T11:10:35;5.00;87.50
32506;DHT22;18955;51.224;8.482;2023-04-08T11:13:01;5.00;87.50
32506;DHT22;18955;51.224;8.482;2023-04-08T11:15:29;5.10;87.50
32506;DHT22;18955;51.224;8.482;2023-04-08T11:17:56;5.10;87.30
32506;DHT22;18955;51.224;8.482;2023-04-08T11:20:22;5.10;87.10
32506;DHT22;18955;51.224;8.482;2023-04-08T11:22:49;5.20;87.30
32506;DHT22;18955;51.224;8.482;2023-04-08T11:25:17;5.20;87.20
32506;DHT22;18955;51.224;8.482;2023-04-08T11:27:43;5.20;87.10
32506;DHT22;18955;51.224;8.482;2023-04-08T11:30:10;5.30;87.10
32506;DHT22;18955;51.224;8.482;2023-04-08T11:32:37;5.30;87.20
32506;DHT22;18955;51.224;8.482;2023-04-08T11:35:04;5.30;87.20
32506;DHT22;18955;51.224;8.482;2023-04-08T11:37:37;5.30;87.20
32506;DHT22;18955;51.224;8.482;2023-04-08T11:40:18;5.30;87.30
32506;DHT22;18955;51.224;8.482;2023-04-08T11:42:44;5.40;87.30
32506;DHT22;18955;51.224;8.482;2023-04-08T11:45:13;5.40;87.30
32506;DHT22;18955;51.224;8.482;2023-04-08T11:47:39;5.40;87.30
32506;DHT22;18955;51.224;8.482;2023-04-08T11:50:07;5.40;87.30
32506;DHT22;18955;51.224;8.482;2023-04-08T11:52:47;5.50;87.40
32506;DHT22;18955;51.224;8.482;2023-04-08T11:55:30;5.50;87.50
32506;DHT22;18955;51.224;8.482;2023-04-08T11:58:02;5.50;87.50
32506;DHT22;18955;51.224;8.482;2023-04-08T12:00:28;5.50;87.40
32506;DHT22;18955;51.224;8.482;2023-04-08T12:02:54;5.50;87.40
32506;DHT22;18955;51.224;8.482;2023-04-08T12:05:21;5.60;87.60
32506;DHT22;18955;51.224;8.482;2023-04-08T12:07:47;5.60;87.50
32506;DHT22;18955;51.224;8.482;2023-04-08T12:10:13;5.60;87.40
32506;DHT22;18955;51.224;8.482;2023-04-08T12:12:40;5.60;87.50
32506;DHT22;18955;51.224;8.482;2023-04-08T12:15:07;5.70;87.50
32506;DHT22;18955;51.224;8.482;2023-04-08T12:17:34;5.70;87.60
32506;DHT22;18955;51.224;8.482;2023-04-08T12:20:00;5.80;87.30
32506;DHT22;18955;51.224;8.482;2023-04-08T12:22:26;5.80;87.00
32506;DHT22;18955;51.224;8.482;2023-04-08T12:24:53;5.90;87.30
32506;DHT22;18955;51.224;8.482;2023-04-08T12:27:19;5.90;87.40
32506;DHT22;18955;51.224;8.482;2023-04-08T12:29:45;5.90;87.30
32506;DHT22;18955;51.224;8.482;2023-04-08T12:32:11;5.90;87.40
32506;DHT22;18955;51.224;8.482;2023-04-08T12:34:38;6.00;87.50
32506;DHT22;18955;51.224;8.482;2023-04-08T12:37:04;6.00;87.50
32506;DHT22;18955;51.224;8.482;2023-04-08T12:39:30;6.00;87.50
32506;DHT22;18955;51.224;8.482;2023-04-08T12:41:57;6.00;87.60
32506;DHT22;18955;51.224;8.482;2023-04-08T12:44:23;6.00;87.50
32506;DHT22;18955;51.224;8.482;2023-04-08T12:46:49;6.10;87.60
32506;DHT22;18955;51.224;8.482;2023-04-08T12:49:16;6.00;87.60
32506;DHT22;18955;51.224;8.482;2023-04-08T12:51:42;6.10;87.60
32506;DHT22;18955;51.224;8.482;2023-04-08T12:54:08;6.10;87.70
32506;DHT22;18955;51.224;8.482;2023-04-08T12:56:34;6.20;87.80
32506;DHT22;18955;51.224;8.482;2023-04-08T12:59:00;6.20;87.70
32506;DHT22;18955;51.224;8.482;2023-04-08T13:01:27;6.20;87.70
32506;DHT22;18955;51.224;8.482;2023-04-08T13:03:53;6.20;87.60
32506;DHT22;18955;51.224;8.482;2023-04-08T13:06:20;6.20;87.70
32506;DHT22;18955;51.224;8.482;2023-04-08T13:08:46;6.20;87.80
32506;DHT22;18955;51.224;8.482;2023-04-08T13:11:12;6.30;87.80
32506;DHT22;18955;51.224;8.482;2023-04-08T13:13:38;6.30;87.90
32506;DHT22;18955;51.224;8.482;2023-04-08T13:16:05;6.30;87.50
32506;DHT22;18955;51.224;8.482;2023-04-08T13:18:31;6.30;87.40
32506;DHT22;18955;51.224;8.482;2023-04-08T13:20:57;6.40;87.50
32506;DHT22;18955;51.224;8.482;2023-04-08T13:23:24;6.40;87.40
32506;DHT22;18955;51.224;8.482;2023-04-08T13:25:50;6.40;87.30
32506;DHT22;18955;51.224;8.482;2023-04-08T13:28:17;6.50;87.40
32506;DHT22;18955;51.224;8.482;2023-04-08T13:30:43;6.40;87.30
32506;DHT22;18955;51.224;8.482;2023-04-08T13:33:09;6.40;87.30
32506;DHT22;18955;51.224;8.482;2023-04-08T13:35:36;6.50;87.30
32506;DHT22;18955;51.224;8.482;2023-04-08T13:38:02;6.50;87.30
32506;DHT22;18955;51.224;8.482;2023-04-08T13:40:28;6.50;87.40
32506;DHT22;18955;51.224;8.482;2023-04-08T13:42:55;6.60;87.50
32506;DHT22;18955;51.224;8.482;2023-04-08T13:45:21;6.50;87.40
32506;DHT22;18955;51.224;8.482;2023-04-08T13:47:47;6.60;87.50
32506;DHT22;18955;51.224;8.482;2023-04-08T13:50:13;6.60;87.60
32506;DHT22;18955;51.224;8.482;2023-04-08T13:52:40;6.60;87.60
32506;DHT22;18955;51.224;8.482;2023-04-08T13:55:07;6.60;87.80
32506;DHT22;18955;51.224;8.482;2023-04-08T13:57:33;6.60;87.90
32506;DHT22;18955;51.224;8.482;2023-04-08T13:59:59;6.70;88.00
32506;DHT22;18955;51.224;8.482;2023-04-08T14:02:26;6.70;88.00
32506;DHT22;18955;51.224;8.482;2023-04-08T14:04:52;6.70;87.90
32506;DHT22;18955;51.224;8.482;2023-04-08T14:07:18;6.70;87.90
32506;DHT22;18955;51.224;8.482;2023-04-08T14:09:45;6.80;87.80
32506;DHT22;18955;51.224;8.482;2023-04-08T14:12:11;6.80;87.70
32506;DHT22;18955;51.224;8.482;2023-04-08T14:14:37;6.80;87.50
32506;DHT22;18955;51.224;8.482;2023-04-08T14:17:03;6.80;87.60
32506;DHT22;18955;51.224;8.482;2023-04-08T14:19:30;6.90;87.60
32506;DHT22;18955;51.224;8.482;2023-04-08T14:21:57;6.90;87.50
32506;DHT22;18955;51.224;8.482;2023-04-08T14:24:23;6.90;87.40
32506;DHT22;18955;51.224;8.482;2023-04-08T14:26:49;6.90;87.50
32506;DHT22;18955;51.224;8.482;2023-04-08T14:29:15;6.90;87.40
32506;DHT22;18955;51.224;8.482;2023-04-08T14:31:42;6.90;87.40
32506;DHT22;18955;51.224;8.482;2023-04-08T14:34:08;6.90;87.40
32506;DHT22;18955;51.224;8.482;2023-04-08T14:36:34;6.90;87.50
32506;DHT22;18955;51.224;8.482;2023-04-08T14:39:00;7.00;87.50
32506;DHT22;18955;51.224;8.482;2023-04-08T14:41:26;7.00;87.50
32506;DHT22;18955;51.224;8.482;2023-04-08T14:43:53;7.00;87.70
32506;DHT22;18955;51.224;8.482;2023-04-08T14:46:19;7.00;87.80
32506;DHT22;18955;51.224;8.482;2023-04-08T14:48:46;7.00;87.70
32506;DHT22;18955;51.224;8.482;2023-04-08T14:51:12;7.00;87.90
32506;DHT22;18955;51.224;8.482;2023-04-08T14:53:38;7.10;87.80
32506;DHT22;18955;51.224;8.482;2023-04-08T14:56:06;7.10;87.80
32506;DHT22;18955;51.224;8.482;2023-04-08T14:58:33;7.10;87.80
32506;DHT22;18955;51.224;8.482;2023-04-08T15:00:59;7.10;87.60
32506;DHT22;18955;51.224;8.482;2023-04-08T15:03:26;7.10;87.90
32506;DHT22;18955;51.224;8.482;2023-04-08T15:05:55;7.20;87.60
32506;DHT22;18955;51.224;8.482;2023-04-08T15:08:22;7.20;87.40
32506;DHT22;18955;51.224;8.482;2023-04-08T15:10:48;7.30;87.40
32506;DHT22;18955;51.224;8.482;2023-04-08T15:13:15;7.30;87.40
32506;DHT22;18955;51.224;8.482;2023-04-08T15:15:41;7.40;88.00
32506;DHT22;18955;51.224;8.482;2023-04-08T15:18:07;7.40;87.60
32506;DHT22;18955;51.224;8.482;2023-04-08T15:20:34;7.50;87.60
32506;DHT22;18955;51.224;8.482;2023-04-08T15:23:00;7.40;87.50
32506;DHT22;18955;51.224;8.482;2023-04-08T15:25:26;7.50;87.60
32506;DHT22;18955;51.224;8.482;2023-04-08T15:27:52;7.50;87.60
32506;DHT22;18955;51.224;8.482;2023-04-08T15:30:19;7.50;87.70
32506;DHT22;18955;51.224;8.482;2023-04-08T15:32:50;7.60;87.80
32506;DHT22;18955;51.224;8.482;2023-04-08T15:35:17;7.60;87.80
32506;DHT22;18955;51.224;8.482;2023-04-08T15:37:43;7.60;87.70
32506;DHT22;18955;51.224;8.482;2023-04-08T15:40:10;7.50;87.70
32506;DHT22;18955;51.224;8.482;2023-04-08T15:42:36;7.60;87.80
32506;DHT22;18955;51.224;8.482;2023-04-08T15:45:03;7.50;87.90
32506;DHT22;18955;51.224;8.482;2023-04-08T15:47:29;7.60;87.90
32506;DHT22;18955;51.224;8.482;2023-04-08T15:49:55;7.50;87.90
32506;DHT22;18955;51.224;8.482;2023-04-08T15:52:22;7.50;88.00
32506;DHT22;18955;51.224;8.482;2023-04-08T15:54:48;7.60;88.00
32506;DHT22;18955;51.224;8.482;2023-04-08T15:57:14;7.60;87.90
32506;DHT22;18955;51.224;8.482;2023-04-08T15:59:41;7.60;87.70
32506;DHT22;18955;51.224;8.482;2023-04-08T16:02:07;7.60;87.60